Time;durP1;ratioP1;P1;durP2;ratioP2;P2;SDS_P1;SDS_P2;PMS_P1;PMS_P2;Temp;Humidity;BMP_temperature;BMP_pressure;BME280_temperature;BME280_humidity;BME280_pressure;Samples;Min_cycle;Max_cycle;Signal;HPM_P1;HPM_P2
2024/01/11 00:00:47;;;;;;;92.18;54.60;;;-7.30;99.90;;;;;;5014112;28;20079;-75
2024/01/11 00:03:14;;;;;;;94.57;53.97;;;-7.40;99.90;;;;;;5022464;28;20106;-73
2024/01/11 00:05:41;;;;;;;91.82;51.35;;;-7.40;99.90;;;;;;5025224;28;20146;-74
2024/01/11 00:08:10;;;;;;;89.60;54.83;;;-7.20;99.90;;;;;;5032000;28;20053;-75
2024/01/11 00:10:37;;;;;;;87.13;51.20;;;-7.20;99.90;;;;;;5032437;28;20138;-75
2024/01/11 00:13:04;;;;;;;96.05;54.00;;;-7.20;99.90;;;;;;5025532;28;20045;-76
2024/01/11 00:15:31;;;;;;;89.80;51.13;;;-7.20;99.90;;;;;;5033468;28;20064;-75
2024/01/11 00:17:58;;;;;;;96.82;51.65;;;-7.30;99.90;;;;;;5048987;28;20041;-75
2024/01/11 00:20:25;;;;;;;96.22;50.95;;;-7.30;99.90;;;;;;5031918;28;20033;-76
2024/01/11 00:22:51;;;;;;;93.82;52.17;;;-7.30;99.90;;;;;;5004130;28;20049;-74
2024/01/11 00:25:18;;;;;;;86.15;51.97;;;-7.30;99.90;;;;;;4991187;28;20127;-75
2024/01/11 00:27:45;;;;;;;95.30;52.67;;;-7.40;99.90;;;;;;5024164;28;20099;-74
2024/01/11 00:30:12;;;;;;;93.00;51.67;;;-7.50;99.90;;;;;;5032719;28;20045;-73
2024/01/11 00:32:39;;;;;;;90.72;51.03;;;-7.50;99.90;;;;;;5012315;28;20182;-74
2024/01/11 00:35:08;;;;;;;96.90;50.97;;;-7.60;99.90;;;;;;5034258;28;20131;-75
2024/01/11 00:37:35;;;;;;;99.60;53.38;;;-7.60;99.90;;;;;;5017664;28;20039;-73
2024/01/11 00:40:02;;;;;;;100.43;55.08;;;-7.60;99.90;;;;;;4999769;28;20048;-75
2024/01/11 00:42:30;;;;;;;94.55;53.08;;;-7.60;99.90;;;;;;5015051;28;20045;-73
2024/01/11 00:44:57;;;;;;;102.05;54.17;;;-7.70;99.90;;;;;;5034206;28;20045;-75
2024/01/11 00:47:24;;;;;;;97.25;53.20;;;-7.80;99.90;;;;;;5036129;28;20507;-74
2024/01/11 00:49:52;;;;;;;92.13;50.97;;;-7.80;99.90;;;;;;5006595;28;20164;-75
2024/01/11 00:52:19;;;;;;;100.93;52.67;;;-7.80;99.90;;;;;;4994950;28;20052;-76
2024/01/11 00:54:46;;;;;;;91.85;52.65;;;-7.80;99.90;;;;;;5027404;28;20131;-74
2024/01/11 00:57:13;;;;;;;93.15;53.28;;;-7.70;99.90;;;;;;5004651;28;20052;-75
2024/01/11 00:59:40;;;;;;;94.82;51.33;;;-7.70;99.90;;;;;;5030608;28;20059;-75
2024/01/11 01:02:07;;;;;;;98.65;52.80;;;-7.80;99.90;;;;;;5028861;28;20076;-75
2024/01/11 01:04:38;;;;;;;81.95;49.15;;;-7.60;99.90;;;;;;5019057;28;20170;-74
2024/01/11 01:07:05;;;;;;;84.88;49.90;;;-7.40;99.90;;;;;;5026468;28;20044;-75
2024/01/11 01:09:32;;;;;;;94.63;49.83;;;-7.40;99.90;;;;;;5037623;28;20131;-74
2024/01/11 01:11:59;;;;;;;92.63;48.60;;;-7.50;99.90;;;;;;5032569;28;20403;-75
2024/01/11 01:14:26;;;;;;;89.60;49.97;;;-7.40;99.90;;;;;;5025495;28;20199;-75
2024/01/11 01:16:52;;;;;;;94.45;50.50;;;-7.30;99.90;;;;;;5025120;28;20218;-73
2024/01/11 01:19:19;;;;;;;90.47;49.22;;;-7.20;99.90;;;;;;5018576;28;20041;-75
2024/01/11 01:21:46;;;;;;;86.82;49.50;;;-7.20;99.90;;;;;;5014688;28;20049;-73
2024/01/11 01:24:13;;;;;;;76.82;47.63;;;-7.10;99.90;;;;;;5040512;28;20118;-74
2024/01/11 01:26:39;;;;;;;77.35;47.88;;;-7.10;99.90;;;;;;5034394;28;20044;-75
2024/01/11 01:29:06;;;;;;;84.82;47.75;;;-7.00;99.90;;;;;;5030998;28;22254;-75
2024/01/11 01:31:37;;;;;;;79.80;47.22;;;-7.00;99.90;;;;;;5032917;28;20384;-73
2024/01/11 01:34:04;;;;;;;84.70;49.75;;;-7.10;99.90;;;;;;5020086;28;20033;-75
2024/01/11 01:36:31;;;;;;;76.13;49.38;;;-7.10;99.90;;;;;;5032210;28;20091;-74
2024/01/11 01:38:58;;;;;;;79.78;47.42;;;-7.20;99.90;;;;;;5030220;28;20045;-75
2024/01/11 01:41:25;;;;;;;75.32;46.90;;;-7.30;99.90;;;;;;5030632;28;20044;-74
2024/01/11 01:43:52;;;;;;;76.65;46.97;;;-7.40;99.90;;;;;;5043471;28;20049;-75
2024/01/11 01:46:23;;;;;;;80.43;48.33;;;-7.50;99.90;;;;;;5047478;28;20072;-73
2024/01/11 01:48:51;;;;;;;85.00;48.42;;;-7.50;99.90;;;;;;5014944;28;20053;-75
2024/01/11 01:51:19;;;;;;;76.18;48.20;;;-7.60;99.90;;;;;;5016448;28;20045;-74
2024/01/11 01:53:47;;;;;;;83.57;48.22;;;-7.60;99.90;;;;;;5014748;28;20768;-74
2024/01/11 01:56:15;;;;;;;84.38;49.47;;;-7.60;99.90;;;;;;5015193;28;21254;-75
2024/01/11 01:58:43;;;;;;;77.43;47.15;;;-7.30;99.90;;;;;;5022154;28;20600;-73
2024/01/11 02:01:10;;;;;;;73.07;47.00;;;-7.20;99.90;;;;;;5008768;28;20052;-75
2024/01/11 02:03:38;;;;;;;76.00;46.30;;;-7.10;99.90;;;;;;5018103;28;20135;-73
2024/01/11 02:06:06;;;;;;;79.47;47.63;;;-7.20;99.90;;;;;;5021553;28;20133;-74
2024/01/11 02:08:35;;;;;;;73.55;46.95;;;-7.40;99.90;;;;;;5027426;28;20040;-75
2024/01/11 02:11:03;;;;;;;82.38;47.08;;;-7.40;99.90;;;;;;5016857;28;20402;-75
2024/01/11 02:13:31;;;;;;;79.65;47.88;;;-7.60;99.90;;;;;;5014744;28;20761;-77
2024/01/11 02:15:58;;;;;;;73.55;46.17;;;-7.60;99.90;;;;;;5027403;28;20071;-75
2024/01/11 02:18:25;;;;;;;80.78;47.38;;;-7.80;99.90;;;;;;5031629;28;20029;-74
2024/01/11 02:20:52;;;;;;;75.53;47.10;;;-7.60;99.90;;;;;;5034092;28;20051;-73
2024/01/11 02:23:24;;;;;;;78.28;47.97;;;-7.60;99.90;;;;;;5023925;28;20075;-75
2024/01/11 02:25:51;;;;;;;83.68;46.28;;;-7.80;99.90;;;;;;5024300;28;20048;-74
2024/01/11 02:28:18;;;;;;;73.57;45.00;;;-7.80;99.90;;;;;;5016914;28;20060;-73
2024/01/11 02:30:45;;;;;;;87.35;48.47;;;-8.20;99.90;;;;;;5035760;28;20060;-75
2024/01/11 02:33:15;;;;;;;77.90;45.90;;;-8.20;99.90;;;;;;5020351;28;20037;-75
2024/01/11 02:35:43;;;;;;;75.97;44.30;;;-8.00;99.90;;;;;;4986161;28;20124;-76
2024/01/11 02:38:14;;;;;;;85.07;48.40;;;-8.10;99.90;;;;;;5022375;28;20060;-74
2024/01/11 02:40:43;;;;;;;83.10;47.00;;;-7.90;99.90;;;;;;5046203;28;20129;-73
2024/01/11 02:43:10;;;;;;;80.70;45.40;;;-8.00;99.90;;;;;;5011004;28;20045;-75
2024/01/11 02:45:37;;;;;;;84.68;47.58;;;-8.10;99.90;;;;;;5037395;28;20052;-74
2024/01/11 02:48:04;;;;;;;79.90;47.53;;;-8.20;99.90;;;;;;5028704;28;20049;-76
2024/01/11 02:50:32;;;;;;;74.68;47.50;;;-8.30;99.90;;;;;;5027753;28;20064;-76
2024/01/11 02:53:02;;;;;;;81.53;45.78;;;-8.30;99.90;;;;;;5027755;28;20053;-75
2024/01/11 02:55:29;;;;;;;82.53;47.38;;;-8.40;99.90;;;;;;5011077;28;20177;-75
2024/01/11 02:57:55;;;;;;;95.65;49.80;;;-8.40;99.90;;;;;;5037026;28;20048;-73
2024/01/11 03:00:22;;;;;;;84.07;48.40;;;-8.50;99.90;;;;;;5050272;28;20047;-73
2024/01/11 03:02:49;;;;;;;74.43;46.17;;;-8.30;99.90;;;;;;5058312;28;20052;-75
2024/01/11 03:05:16;;;;;;;85.25;47.63;;;-8.30;99.90;;;;;;5023405;28;21889;-76
2024/01/11 03:07:43;;;;;;;77.78;46.72;;;-8.20;99.90;;;;;;5044422;28;20048;-75
2024/01/11 03:10:10;;;;;;;88.78;49.45;;;-8.10;99.90;;;;;;5040097;28;20053;-77
2024/01/11 03:12:37;;;;;;;84.22;49.33;;;-8.10;99.90;;;;;;5017224;28;20057;-76
2024/01/11 03:15:04;;;;;;;82.88;47.50;;;-8.20;99.90;;;;;;5032535;28;20047;-76
2024/01/11 03:17:32;;;;;;;87.50;48.95;;;-8.20;99.90;;;;;;5036968;28;20095;-77
2024/01/11 03:19:59;;;;;;;87.55;50.60;;;-8.20;99.90;;;;;;5027197;28;20054;-78
2024/01/11 03:22:26;;;;;;;85.15;50.00;;;-8.30;99.90;;;;;;5033762;28;20045;-77
2024/01/11 03:24:53;;;;;;;79.15;45.63;;;-8.30;99.90;;;;;;5017627;28;20407;-76
2024/01/11 03:27:20;;;;;;;87.97;48.17;;;-8.20;99.90;;;;;;5018625;28;20068;-76
2024/01/11 03:29:46;;;;;;;83.57;45.60;;;-8.30;99.90;;;;;;5029692;28;20134;-77
2024/01/11 03:32:14;;;;;;;80.90;46.13;;;-8.30;99.90;;;;;;5032329;28;20699;-75
2024/01/11 03:34:41;;;;;;;80.80;48.33;;;-8.20;99.90;;;;;;5004925;28;20677;-74
2024/01/11 03:37:08;;;;;;;80.80;46.20;;;-8.20;99.90;;;;;;5014107;28;20047;-71
2024/01/11 03:39:35;;;;;;;77.80;45.53;;;-8.20;99.90;;;;;;5013351;28;20040;-74
2024/01/11 03:42:03;;;;;;;81.03;45.95;;;-8.10;99.90;;;;;;5026670;28;20045;-75
2024/01/11 03:44:31;;;;;;;82.90;48.22;;;-8.10;99.90;;;;;;5046492;28;20569;-74
2024/01/11 03:46:58;;;;;;;82.70;47.72;;;-8.30;99.90;;;;;;5031044;28;20044;-74
2024/01/11 03:49:24;;;;;;;79.57;46.35;;;-8.30;99.90;;;;;;5036679;28;20689;-74
2024/01/11 03:51:51;;;;;;;82.38;46.50;;;-8.30;99.90;;;;;;5025207;28;20048;-75
2024/01/11 03:54:18;;;;;;;80.22;46.97;;;-8.40;99.90;;;;;;5030367;28;20049;-75
2024/01/11 03:56:45;;;;;;;80.22;47.80;;;-8.20;99.90;;;;;;5033716;28;20711;-75
2024/01/11 03:59:12;;;;;;;77.60;46.08;;;-8.30;99.90;;;;;;5032075;28;20040;-74
2024/01/11 04:01:40;;;;;;;83.57;45.92;;;-8.30;99.90;;;;;;5021287;28;20113;-74
2024/01/11 04:04:08;;;;;;;82.00;45.22;;;-8.40;99.90;;;;;;5021777;28;20041;-74
2024/01/11 04:06:35;;;;;;;87.22;49.00;;;-8.30;99.90;;;;;;5014410;28;20045;-74
2024/01/11 04:09:02;;;;;;;90.20;47.92;;;-8.20;99.90;;;;;;5033257;28;20072;-73
2024/01/11 04:11:29;;;;;;;86.82;48.08;;;-8.20;99.90;;;;;;5020346;28;20566;-74
2024/01/11 04:13:56;;;;;;;78.63;45.10;;;-8.30;99.90;;;;;;5032634;28;20083;-75
2024/01/11 04:16:23;;;;;;;76.75;45.35;;;-8.30;99.90;;;;;;5028351;28;20201;-74
2024/01/11 04:18:49;;;;;;;75.82;44.65;;;-8.30;99.90;;;;;;5036859;28;20036;-75
2024/01/11 04:21:24;;;;;;;84.45;46.97;;;-8.30;99.90;;;;;;5027434;28;20044;-74
2024/01/11 04:23:50;;;;;;;;;;;-8.20;99.90;;;;;;5025854;28;20507;-74
2024/01/11 04:26:18;;;;;;;78.60;44.97;;;-8.20;99.90;;;;;;5024320;28;20402;-73
2024/01/11 04:28:46;;;;;;;75.68;45.95;;;-8.10;99.90;;;;;;5029884;28;20045;-74
2024/01/11 04:31:13;;;;;;;80.35;47.38;;;-8.00;99.90;;;;;;5038515;28;20045;-73
2024/01/11 04:33:41;;;;;;;88.93;47.67;;;-7.90;99.90;;;;;;5031307;28;20858;-75
2024/01/11 04:36:09;;;;;;;83.28;44.72;;;-8.00;99.90;;;;;;5018440;28;20045;-73
2024/01/11 04:38:39;;;;;;;78.63;44.97;;;-8.00;99.90;;;;;;5032115;28;20415;-76
2024/01/11 04:41:14;;;;;;;84.93;47.30;;;-8.00;99.90;;;;;;5036120;28;20048;-77
2024/01/11 04:43:43;;;;;;;76.95;46.38;;;-7.80;99.90;;;;;;5034393;28;20514;-76
2024/01/11 04:46:14;;;;;;;85.75;48.47;;;-7.60;99.90;;;;;;5036934;28;20533;-77
2024/01/11 04:48:41;;;;;;;74.50;45.83;;;-7.60;99.90;;;;;;5022976;28;20053;-75
2024/01/11 04:51:09;;;;;;;80.63;47.05;;;-7.70;99.90;;;;;;5031847;28;20115;-77
2024/01/11 04:53:39;;;;;;;79.53;48.00;;;-7.70;99.90;;;;;;5049549;28;20053;-73
2024/01/11 04:56:07;;;;;;;87.60;49.70;;;-7.60;99.90;;;;;;5012488;28;20510;-73
2024/01/11 04:58:36;;;;;;;81.40;46.95;;;-7.50;99.90;;;;;;5024375;28;20083;-75
2024/01/11 05:01:04;;;;;;;80.85;48.00;;;-7.40;99.90;;;;;;5013267;28;20056;-75
2024/01/11 05:03:31;;;;;;;84.25;51.00;;;-7.50;99.90;;;;;;5011613;28;20536;-75
2024/01/11 05:05:59;;;;;;;93.72;51.92;;;-7.60;99.90;;;;;;5034994;28;20053;-74
2024/01/11 05:08:27;;;;;;;84.53;49.53;;;-7.80;99.90;;;;;;5020362;28;20048;-74
2024/01/11 05:10:54;;;;;;;84.55;51.25;;;-8.00;99.90;;;;;;4991839;28;20052;-75
2024/01/11 05:13:21;;;;;;;85.40;52.47;;;-8.20;99.90;;;;;;4997829;28;20414;-74
2024/01/11 05:15:48;;;;;;;83.68;51.45;;;-8.20;99.90;;;;;;5025043;28;20048;-74
2024/01/11 05:18:15;;;;;;;99.47;51.80;;;-8.20;99.90;;;;;;5033012;28;20115;-74
2024/01/11 05:20:42;;;;;;;90.95;53.20;;;-8.20;99.90;;;;;;5016447;28;20543;-73
2024/01/11 05:23:09;;;;;;;74.30;48.67;;;-8.20;99.90;;;;;;5007524;28;20159;-74
2024/01/11 05:25:35;;;;;;;83.97;49.00;;;-8.10;99.90;;;;;;4990847;28;20043;-73
2024/01/11 05:28:03;;;;;;;91.35;51.95;;;-8.10;99.90;;;;;;5029499;28;20858;-74
2024/01/11 05:30:30;;;;;;;128.60;59.63;;;-8.00;99.90;;;;;;5016713;28;20041;-73
2024/01/11 05:32:57;;;;;;;65.10;39.67;;;-7.90;99.90;;;;;;5031395;28;20097;-74
2024/01/11 05:35:27;;;;;;;90.53;48.80;;;-8.00;99.90;;;;;;5037225;28;20124;-73
2024/01/11 05:37:57;;;;;;;117.30;51.97;;;-7.90;99.90;;;;;;5034032;28;20051;-75
2024/01/11 05:40:23;;;;;;;82.90;50.25;;;-7.90;99.90;;;;;;5060942;28;20052;-74
2024/01/11 05:42:50;;;;;;;78.82;49.65;;;-7.80;99.90;;;;;;5022568;28;20053;-73
2024/01/11 05:45:17;;;;;;;85.35;48.58;;;-7.70;99.90;;;;;;5047385;28;20570;-74
2024/01/11 05:47:50;;;;;;;91.82;50.63;;;-8.10;99.90;;;;;;5037222;28;20037;-73
2024/01/11 05:50:17;;;;;;;84.60;47.88;;;-8.10;99.90;;;;;;5019426;28;20045;-73
2024/01/11 05:52:44;;;;;;;86.43;48.08;;;-8.20;99.90;;;;;;5030859;28;20049;-75
2024/01/11 05:55:11;;;;;;;83.20;50.85;;;-8.10;99.90;;;;;;5033994;28;20076;-74
2024/01/11 05:57:38;;;;;;;103.72;51.42;;;-8.00;99.90;;;;;;5038844;28;20048;-75
2024/01/11 06:00:05;;;;;;;97.25;52.38;;;-7.90;99.90;;;;;;5031394;28;20838;-73
2024/01/11 06:02:32;;;;;;;88.70;51.15;;;-7.90;99.90;;;;;;5023278;28;20238;-75
2024/01/11 06:04:59;;;;;;;83.97;52.25;;;-7.90;99.90;;;;;;4995770;28;20050;-74
2024/01/11 06:07:26;;;;;;;76.18;48.38;;;-7.90;99.90;;;;;;5003386;28;20041;-75
2024/01/11 06:09:53;;;;;;;84.38;48.85;;;-8.00;99.90;;;;;;5013028;28;20716;-74
2024/01/11 06:12:20;;;;;;;90.25;52.60;;;-7.90;99.90;;;;;;5009896;28;20044;-75
2024/01/11 06:14:47;;;;;;;91.43;50.83;;;-7.90;99.90;;;;;;5017543;28;20067;-74
2024/01/11 06:17:14;;;;;;;87.85;49.78;;;-7.90;99.90;;;;;;5018544;28;20703;-75
2024/01/11 06:19:41;;;;;;;86.22;50.60;;;-8.10;99.90;;;;;;5002174;28;20207;-74
2024/01/11 06:22:07;;;;;;;93.32;51.75;;;-8.20;99.90;;;;;;5036891;28;20136;-74
2024/01/11 06:24:34;;;;;;;84.07;49.25;;;-8.10;99.90;;;;;;5030930;28;20691;-74
2024/01/11 06:27:01;;;;;;;81.85;49.58;;;-8.10;99.90;;;;;;5032465;28;20043;-75
2024/01/11 06:29:28;;;;;;;84.22;49.13;;;-8.20;99.90;;;;;;5037801;28;20051;-73
2024/01/11 06:31:55;;;;;;;82.28;44.53;;;-8.20;99.90;;;;;;5045716;28;20079;-76
2024/01/11 06:34:22;;;;;;;80.10;45.15;;;-8.30;99.90;;;;;;5014866;28;20744;-76
2024/01/11 06:36:48;;;;;;;89.38;47.85;;;-8.20;99.90;;;;;;5043152;28;20048;-76
2024/01/11 06:39:15;;;;;;;82.97;46.33;;;-8.10;99.90;;;;;;5033267;28;20063;-76
2024/01/11 06:41:42;;;;;;;81.15;45.70;;;-8.00;99.90;;;;;;5051678;28;20066;-77
2024/01/11 06:44:09;;;;;;;89.28;48.63;;;-7.90;99.90;;;;;;5032839;28;20435;-76
2024/01/11 06:46:38;;;;;;;86.53;48.45;;;-7.80;99.90;;;;;;5043020;28;20048;-75
2024/01/11 06:49:06;;;;;;;79.55;46.40;;;-7.70;99.90;;;;;;5034283;28;20045;-76
2024/01/11 06:51:32;;;;;;;78.25;45.10;;;-7.70;99.90;;;;;;5033917;28;20466;-77
2024/01/11 06:54:01;;;;;;;76.93;47.83;;;-7.60;99.90;;;;;;5021918;28;20048;-75
2024/01/11 06:56:28;;;;;;;77.78;45.95;;;-7.70;99.90;;;;;;5017558;28;20408;-76
2024/01/11 06:58:55;;;;;;;80.10;47.38;;;-7.80;99.90;;;;;;5037498;28;20043;-76
2024/01/11 07:01:23;;;;;;;77.95;45.70;;;-7.80;99.90;;;;;;5034196;28;20050;-77
2024/01/11 07:03:49;;;;;;;74.68;44.65;;;-7.90;99.90;;;;;;5030292;28;20060;-76
2024/01/11 07:06:16;;;;;;;78.00;44.13;;;-8.00;99.90;;;;;;5036282;28;20053;-76
2024/01/11 07:08:44;;;;;;;82.80;50.30;;;-8.00;99.90;;;;;;5037962;28;20041;-77
2024/01/11 07:11:11;;;;;;;82.30;50.92;;;-8.10;99.90;;;;;;5037426;28;20147;-77
2024/01/11 07:13:38;;;;;;;86.80;52.00;;;-8.10;99.90;;;;;;5028352;28;20044;-76
2024/01/11 07:16:05;;;;;;;90.95;51.08;;;-8.10;99.90;;;;;;5015159;28;20136;-75
2024/01/11 07:18:35;;;;;;;86.45;51.05;;;-8.10;99.90;;;;;;5021352;28;20086;-76
2024/01/11 07:21:02;;;;;;;89.28;49.40;;;-8.10;99.90;;;;;;5031890;28;20044;-76
2024/01/11 07:23:29;;;;;;;95.70;51.85;;;-8.10;99.90;;;;;;5027915;28;20028;-75
2024/01/11 07:25:55;;;;;;;83.03;49.53;;;-8.10;99.90;;;;;;5027826;28;20044;-76
2024/01/11 07:28:25;;;;;;;86.20;49.90;;;-8.00;99.90;;;;;;5029366;28;20052;-79
2024/01/11 07:30:53;;;;;;;87.50;51.78;;;-8.10;99.90;;;;;;5029185;28;20055;-79
2024/01/11 07:33:20;;;;;;;78.88;51.55;;;-8.10;99.90;;;;;;5045008;28;20355;-76
2024/01/11 07:35:48;;;;;;;74.50;44.97;;;-8.00;99.90;;;;;;5034682;28;20041;-75
2024/01/11 07:38:15;;;;;;;81.90;45.72;;;-8.00;99.90;;;;;;5031963;28;20663;-74
2024/01/11 07:40:42;;;;;;;75.20;46.00;;;-8.00;99.90;;;;;;5033290;28;20051;-76
2024/01/11 07:43:10;;;;;;;81.63;48.53;;;-8.00;99.90;;;;;;5034992;28;20053;-75
2024/01/11 07:45:36;;;;;;;79.13;48.60;;;-8.00;99.90;;;;;;5041459;28;20555;-76
2024/01/11 07:48:03;;;;;;;85.95;48.83;;;-7.90;99.90;;;;;;5036288;28;20061;-74
2024/01/11 07:50:32;;;;;;;77.65;44.78;;;-7.70;99.90;;;;;;5031176;28;20056;-75
2024/01/11 07:52:59;;;;;;;73.45;41.72;;;-7.80;99.90;;;;;;5040862;28;20128;-76
2024/01/11 07:55:26;;;;;;;70.57;44.00;;;-7.70;99.90;;;;;;5015186;28;20128;-75
2024/01/11 07:57:53;;;;;;;76.70;42.72;;;-7.70;99.90;;;;;;5034766;28;20597;-75
2024/01/11 08:00:19;;;;;;;69.72;42.95;;;-7.70;99.90;;;;;;5038534;28;20049;-76
2024/01/11 08:02:46;;;;;;;75.15;45.88;;;-7.60;99.90;;;;;;5019066;28;20041;-75
2024/01/11 08:05:13;;;;;;;78.18;51.92;;;-7.60;99.90;;;;;;5009969;28;20036;-75
2024/01/11 08:07:42;;;;;;;77.47;54.45;;;-7.50;99.90;;;;;;5036038;28;20059;-74
2024/01/11 08:10:09;;;;;;;82.63;54.50;;;-7.50;99.90;;;;;;5036221;28;20044;-75
2024/01/11 08:12:36;;;;;;;131.80;66.78;;;-7.60;99.90;;;;;;5032659;28;20052;-75
2024/01/11 08:15:04;;;;;;;108.68;63.83;;;-7.60;99.90;;;;;;5009354;28;20046;-75
2024/01/11 08:17:30;;;;;;;126.97;66.53;;;-7.60;99.90;;;;;;5031403;28;20052;-75
2024/01/11 08:19:57;;;;;;;148.27;84.95;;;-7.60;99.90;;;;;;5040559;28;20652;-74
2024/01/11 08:22:28;;;;;;;127.82;78.70;;;-7.70;99.90;;;;;;5036516;28;20593;-75
2024/01/11 08:24:55;;;;;;;126.85;73.03;;;-7.60;99.90;;;;;;5024998;28;20495;-75
2024/01/11 08:27:22;;;;;;;118.05;74.35;;;-7.30;99.90;;;;;;4990657;28;20141;-76
2024/01/11 08:29:49;;;;;;;107.03;66.43;;;-7.40;99.90;;;;;;5040365;28;20056;-75
2024/01/11 08:32:16;;;;;;;97.38;71.80;;;-7.40;99.90;;;;;;5029989;28;20045;-76
2024/01/11 08:34:57;;;;;;;103.47;69.97;;;-7.40;99.90;;;;;;5022791;28;20158;-74
2024/01/11 08:37:25;;;;;;;103.32;71.75;;;-7.30;99.90;;;;;;5036334;28;20048;-76
2024/01/11 08:39:52;;;;;;;107.65;70.78;;;-7.10;99.90;;;;;;5027745;28;20423;-73
2024/01/11 08:42:18;;;;;;;95.05;71.05;;;-7.00;99.90;;;;;;5016495;28;20080;-73
2024/01/11 08:44:45;;;;;;;100.85;72.97;;;-6.80;99.90;;;;;;5013754;28;20051;-75
2024/01/11 08:47:12;;;;;;;105.28;74.32;;;-6.60;99.90;;;;;;5014709;28;20636;-76
2024/01/11 08:49:39;;;;;;;106.30;77.03;;;-6.50;99.90;;;;;;5045681;28;20123;-74
2024/01/11 08:52:07;;;;;;;103.30;72.93;;;-6.30;99.90;;;;;;5037335;28;20102;-74
2024/01/11 08:54:34;;;;;;;98.35;71.88;;;-6.00;99.90;;;;;;5041319;28;20723;-75
2024/01/11 08:57:01;;;;;;;105.00;74.70;;;-5.70;99.90;;;;;;5038621;28;20052;-74
2024/01/11 08:59:29;;;;;;;93.90;72.47;;;-5.20;99.90;;;;;;5049491;28;20045;-75
2024/01/11 09:01:56;;;;;;;99.30;72.53;;;-4.90;99.90;;;;;;5060513;28;20107;-75
2024/01/11 09:04:39;;;;;;;86.75;74.50;;;-4.20;99.90;;;;;;5038423;28;21012;-74
2024/01/11 09:07:09;;;;;;;87.30;74.57;;;-3.60;99.90;;;;;;5030648;28;20515;-74
2024/01/11 09:09:37;;;;;;;93.53;74.72;;;-3.40;99.90;;;;;;5017033;28;20061;-72
2024/01/11 09:12:16;;;;;;;76.38;68.85;;;-3.60;99.90;;;;;;5008863;28;20132;-74
2024/01/11 09:14:43;;;;;;;66.95;60.58;;;-4.00;99.90;;;;;;5025987;28;20049;-74
2024/01/11 09:17:10;;;;;;;71.75;64.20;;;-4.40;99.90;;;;;;5020125;28;20140;-74
2024/01/11 09:19:39;;;;;;;68.53;62.47;;;-4.10;99.90;;;;;;5028252;28;20049;-74
2024/01/11 09:22:09;;;;;;;70.78;64.40;;;-3.50;99.90;;;;;;5013255;28;20041;-74
2024/01/11 09:24:37;;;;;;;73.57;66.53;;;-3.20;99.90;;;;;;5025443;28;20059;-76
2024/01/11 09:27:06;;;;;;;74.30;66.50;;;-2.40;99.90;;;;;;5018109;28;20040;-74
2024/01/11 09:29:33;;;;;;;72.38;65.22;;;-1.80;99.90;;;;;;5028161;28;20041;-74
2024/01/11 09:32:00;;;;;;;76.32;68.22;;;-1.30;99.90;;;;;;5028256;28;20457;-73
2024/01/11 09:34:28;;;;;;;95.57;80.72;;;-1.00;99.90;;;;;;5036898;28;20510;-74
2024/01/11 09:36:58;;;;;;;98.07;83.80;;;-0.80;99.90;;;;;;5029901;28;20047;-75
2024/01/11 09:39:25;;;;;;;106.63;91.72;;;-0.80;99.90;;;;;;5032702;28;20055;-75
2024/01/11 09:42:09;;;;;;;95.55;84.00;;;-1.00;99.90;;;;;;5032187;28;20680;-75
2024/01/11 09:44:38;;;;;;;97.47;83.38;;;-1.10;99.90;;;;;;5028560;28;20060;-76
2024/01/11 09:47:10;;;;;;;93.88;82.95;;;-1.00;99.90;;;;;;5026785;28;20033;-74
2024/01/11 09:49:45;;;;;;;102.28;85.50;;;-0.90;99.90;;;;;;5059251;28;20072;-76
2024/01/11 09:52:14;;;;;;;104.60;85.80;;;-0.50;99.90;;;;;;5025710;28;20044;-77
2024/01/11 09:54:41;;;;;;;89.50;80.57;;;-0.10;99.90;;;;;;4995287;28;21820;-76
2024/01/11 09:57:09;;;;;;;96.15;82.63;;;0.10;99.90;;;;;;5030242;28;20048;-76
2024/01/11 09:59:37;;;;;;;93.45;84.00;;;0.40;99.90;;;;;;5028212;28;20051;-76
2024/01/11 10:02:08;;;;;;;103.15;91.75;;;0.70;99.90;;;;;;5032379;28;20037;-76
2024/01/11 10:04:41;;;;;;;103.63;92.80;;;0.70;99.90;;;;;;5023224;28;20045;-75
2024/01/11 10:07:09;;;;;;;104.70;93.70;;;0.80;99.90;;;;;;5026571;28;20045;-76
2024/01/11 10:09:36;;;;;;;118.97;106.68;;;0.90;99.90;;;;;;5019795;28;20103;-77
2024/01/11 10:12:04;;;;;;;110.28;99.80;;;1.00;99.90;;;;;;5041214;28;20639;-76
2024/01/11 10:14:32;;;;;;;115.07;104.22;;;1.10;99.90;;;;;;5039253;28;20040;-77
2024/01/11 10:17:00;;;;;;;111.85;102.30;;;1.00;99.90;;;;;;5029847;28;20277;-77
2024/01/11 10:19:27;;;;;;;107.32;97.68;;;0.90;99.90;;;;;;5034040;28;20142;-77
2024/01/11 10:21:54;;;;;;;137.20;122.68;;;1.10;99.90;;;;;;5014873;28;20649;-76
2024/01/11 10:24:23;;;;;;;111.15;100.47;;;1.20;99.90;;;;;;5023274;28;20045;-76
2024/01/11 10:26:58;;;;;;;114.35;104.30;;;1.20;99.90;;;;;;5023723;28;20033;-77
2024/01/11 10:29:39;;;;;;;111.18;101.40;;;1.20;99.90;;;;;;5021459;28;20045;-75
2024/01/11 10:32:06;;;;;;;110.30;100.25;;;1.30;99.90;;;;;;5040278;28;20543;-77
2024/01/11 10:34:33;;;;;;;105.43;96.38;;;1.50;99.90;;;;;;5027120;28;20044;-74
2024/01/11 10:37:01;;;;;;;114.57;103.72;;;1.50;99.90;;;;;;5031466;28;20119;-75
2024/01/11 10:39:35;;;;;;;128.52;115.75;;;1.60;99.90;;;;;;5031150;28;20516;-75
2024/01/11 10:42:07;;;;;;;121.63;111.07;;;1.70;99.90;;;;;;5012462;28;20045;-75
2024/01/11 10:44:35;;;;;;;118.60;107.43;;;1.60;99.90;;;;;;5014252;28;20049;-74
2024/01/11 10:47:07;;;;;;;113.25;103.57;;;1.40;99.90;;;;;;5016355;28;20041;-74
2024/01/11 10:49:39;;;;;;;109.43;99.10;;;1.40;99.90;;;;;;5030416;28;20044;-76
2024/01/11 10:52:08;;;;;;;108.60;98.72;;;1.40;99.90;;;;;;5022478;28;20045;-74
2024/01/11 10:54:38;;;;;;;111.78;101.30;;;1.30;99.90;;;;;;5002087;28;20091;-74
2024/01/11 10:57:07;;;;;;;114.78;103.03;;;1.20;99.90;;;;;;5018506;28;20081;-74
2024/01/11 10:59:35;;;;;;;109.72;100.07;;;1.30;99.90;;;;;;5011681;28;20113;-75
2024/01/11 11:02:12;;;;;;;107.43;97.90;;;1.20;99.90;;;;;;5026464;28;20049;-75
2024/01/11 11:04:43;;;;;;;102.93;94.10;;;1.30;99.90;;;;;;5023849;28;20041;-76
2024/01/11 11:07:11;;;;;;;110.38;100.60;;;1.50;99.90;;;;;;5022610;28;20525;-75
2024/01/11 11:09:43;;;;;;;110.50;100.85;;;1.70;99.90;;;;;;5005206;28;20075;-76
2024/01/11 11:12:11;;;;;;;108.97;99.30;;;1.80;99.90;;;;;;5013030;28;20053;-74
2024/01/11 11:14:38;;;;;;;112.05;101.57;;;1.80;99.90;;;;;;5039765;28;20102;-74
2024/01/11 11:17:05;;;;;;;104.55;95.07;;;1.80;99.90;;;;;;5014485;28;20068;-74
2024/01/11 11:19:32;;;;;;;106.38;96.65;;;1.80;99.90;;;;;;5042049;28;20048;-74
2024/01/11 11:22:04;;;;;;;105.63;95.97;;;1.80;99.90;;;;;;5033455;28;20063;-74
2024/01/11 11:24:35;;;;;;;98.68;90.22;;;1.60;99.90;;;;;;5013854;28;20044;-75
2024/01/11 11:27:05;;;;;;;98.35;89.45;;;1.60;99.90;;;;;;5035091;28;20135;-75
2024/01/11 11:29:33;;;;;;;101.95;92.15;;;1.60;99.90;;;;;;5040494;28;20098;-76
2024/01/11 11:32:03;;;;;;;103.82;94.10;;;1.60;99.90;;;;;;5035741;28;20637;-76
2024/01/11 11:34:49;;;;;;;100.18;90.68;;;1.60;99.90;;;;;;5028599;28;20151;-75
2024/01/11 11:37:23;;;;;;;97.55;88.57;;;1.70;99.90;;;;;;5034406;28;20117;-75
2024/01/11 11:39:50;;;;;;;95.93;87.00;;;1.50;99.90;;;;;;5037633;28;20057;-74
2024/01/11 11:42:18;;;;;;;87.20;78.65;;;1.50;99.90;;;;;;5033367;28;20037;-77
2024/01/11 11:44:50;;;;;;;86.45;78.35;;;1.50;99.90;;;;;;5000617;28;20045;-76
2024/01/11 11:47:22;;;;;;;95.32;86.95;;;1.40;99.90;;;;;;5018498;28;20041;-78
2024/01/11 11:50:11;;;;;;;89.85;81.78;;;1.30;99.90;;;;;;5030463;28;20124;-77
2024/01/11 11:52:45;;;;;;;91.20;82.90;;;1.30;99.90;;;;;;5017653;28;20040;-77
2024/01/11 11:55:13;;;;;;;97.45;89.15;;;1.10;99.90;;;;;;5042965;28;20577;-75
2024/01/11 11:57:43;;;;;;;98.97;90.35;;;0.90;99.90;;;;;;5085907;28;20025;-76
2024/01/11 12:00:16;;;;;;;98.72;89.97;;;0.70;99.90;;;;;;5046559;28;20041;-77
2024/01/11 12:02:48;;;;;;;100.15;90.93;;;0.60;99.90;;;;;;5009943;28;20650;-78
2024/01/11 12:05:17;;;;;;;95.15;86.28;;;0.60;99.90;;;;;;5021228;28;20052;-77
2024/01/11 12:07:47;;;;;;;98.93;90.00;;;0.60;99.90;;;;;;5038696;28;20041;-77
2024/01/11 12:10:17;;;;;;;98.72;89.28;;;0.60;99.90;;;;;;5015307;28;20040;-77
2024/01/11 12:12:44;;;;;;;99.05;89.45;;;0.60;99.90;;;;;;5013058;28;20593;-78
2024/01/11 12:15:11;;;;;;;94.63;85.72;;;0.70;99.90;;;;;;5014187;28;20073;-78
2024/01/11 12:17:42;;;;;;;90.60;81.97;;;0.70;99.90;;;;;;5027651;28;20052;-76
2024/01/11 12:20:16;;;;;;;96.68;87.45;;;0.90;99.90;;;;;;5036946;28;20053;-78
2024/01/11 12:22:50;;;;;;;92.88;84.18;;;1.10;99.90;;;;;;5039227;28;20136;-78
2024/01/11 12:25:17;;;;;;;92.95;84.13;;;1.00;99.90;;;;;;5028645;28;20080;-77
2024/01/11 12:27:45;;;;;;;93.85;85.30;;;1.10;99.90;;;;;;5035525;28;20133;-77
2024/01/11 12:30:14;;;;;;;101.65;92.72;;;0.90;99.90;;;;;;5025585;28;20036;-77